createdAt,value
2023-10-02T00:00:52.007Z,16.80
2023-10-02T00:01:52.343Z,16.77
2023-10-02T00:02:51.469Z,16.73
2023-10-02T00:03:52.474Z,16.70
2023-10-02T00:04:51.708Z,16.69
2023-10-02T00:05:52.728Z,16.65
2023-10-02T00:06:50.849Z,16.63
2023-10-02T00:07:51.019Z,16.63
2023-10-02T00:08:51.160Z,16.63
2023-10-02T00:09:51.222Z,16.63
2023-10-02T00:10:51.392Z,16.63
2023-10-02T00:11:51.471Z,16.57
2023-10-02T00:12:51.577Z,16.54
2023-10-02T00:13:50.683Z,16.50
2023-10-02T00:14:50.821Z,16.45
2023-10-02T00:15:50.964Z,16.45
2023-10-02T00:16:51.149Z,16.41
2023-10-02T00:17:52.229Z,16.36
2023-10-02T00:18:51.359Z,16.33
2023-10-02T00:19:52.818Z,16.32
2023-10-02T00:20:50.646Z,16.30
2023-10-02T00:21:50.752Z,16.29
2023-10-02T00:22:50.912Z,16.27
2023-10-02T00:23:50.998Z,16.26
2023-10-02T00:24:51.129Z,16.25
2023-10-02T00:25:51.376Z,16.27
2023-10-02T00:26:51.373Z,16.26
2023-10-02T00:27:51.708Z,16.23
2023-10-02T00:28:50.610Z,16.22
2023-10-02T00:29:51.719Z,16.17
2023-10-02T00:30:50.863Z,16.13
2023-10-02T00:31:51.045Z,16.11
2023-10-02T00:32:51.428Z,16.10
2023-10-02T00:33:51.211Z,16.04
2023-10-02T00:34:51.371Z,16.01
2023-10-02T00:35:50.436Z,16.01
2023-10-02T00:36:51.517Z,15.99
2023-10-02T00:37:52.581Z,15.96
2023-10-02T00:38:51.751Z,15.99
2023-10-02T00:39:51.889Z,16.03
2023-10-02T00:40:51.130Z,15.96
2023-10-02T00:41:51.259Z,15.95
2023-10-02T00:42:50.379Z,15.95
2023-10-02T00:43:51.610Z,15.98
2023-10-02T00:44:51.561Z,15.98
2023-10-02T00:45:50.785Z,15.98
2023-10-02T00:46:51.855Z,15.96
2023-10-02T00:47:51.108Z,15.95
2023-10-02T00:48:51.211Z,15.93
2023-10-02T00:49:50.360Z,15.95
2023-10-02T00:50:50.967Z,15.95
2023-10-02T00:51:50.645Z,15.91
2023-10-02T00:52:50.918Z,15.91
2023-10-02T00:53:51.928Z,15.92
2023-10-02T00:54:51.136Z,15.89
2023-10-02T00:55:50.231Z,15.88
2023-10-02T00:56:51.352Z,15.91
2023-10-02T00:57:51.528Z,15.89
2023-10-02T00:58:51.646Z,15.86
2023-10-02T00:59:51.845Z,15.85
2023-10-02T01:00:51.006Z,15.89
2023-10-02T01:01:50.132Z,15.91
2023-10-02T01:02:50.295Z,15.91
2023-10-02T01:03:50.460Z,15.93
2023-10-02T01:04:51.634Z,15.93
2023-10-02T01:05:52.259Z,15.96
2023-10-02T01:06:50.984Z,15.98
2023-10-02T01:07:50.143Z,16.01
2023-10-02T01:08:50.253Z,16.01
2023-10-02T01:09:50.399Z,16.03
2023-10-02T01:10:51.521Z,16.06
2023-10-02T01:11:50.760Z,16.07
2023-10-02T01:12:51.833Z,16.04
2023-10-02T01:13:50.046Z,16.04
2023-10-02T01:14:50.161Z,16.03
2023-10-02T01:15:50.852Z,15.99
2023-10-02T01:16:50.540Z,15.96
2023-10-02T01:17:50.706Z,15.95
2023-10-02T01:18:50.741Z,15.93
2023-10-02T01:19:49.914Z,15.91
2023-10-02T01:20:50.013Z,15.91
2023-10-02T01:21:50.156Z,15.89
2023-10-02T01:22:50.351Z,15.89
2023-10-02T01:23:50.559Z,15.86
2023-10-02T01:24:50.595Z,15.88
2023-10-02T01:25:49.759Z,15.89
2023-10-02T01:26:49.911Z,15.89
2023-10-02T01:27:50.267Z,15.88
2023-10-02T01:28:50.282Z,15.85
2023-10-02T01:29:50.364Z,15.84
2023-10-02T01:30:50.566Z,15.80
2023-10-02T01:31:49.747Z,15.73
2023-10-02T01:32:49.933Z,15.71
2023-10-02T01:33:49.954Z,15.67
2023-10-02T01:34:50.148Z,15.64
2023-10-02T01:35:50.777Z,15.60
2023-10-02T01:36:50.478Z,15.58
2023-10-02T01:37:49.584Z,15.56
2023-10-02T01:38:49.720Z,15.53
2023-10-02T01:39:49.898Z,15.49
2023-10-02T01:40:50.127Z,15.44
2023-10-02T01:41:50.361Z,15.41
2023-10-02T01:42:50.356Z,15.38
2023-10-02T01:43:50.497Z,15.40
2023-10-02T01:44:49.614Z,15.38
2023-10-02T01:45:49.774Z,15.40
2023-10-02T01:46:49.996Z,15.40
2023-10-02T01:47:50.283Z,15.38
2023-10-02T01:48:50.624Z,15.40
2023-10-02T01:49:50.463Z,15.41
2023-10-02T01:50:49.493Z,15.41
2023-10-02T01:51:49.636Z,15.41
2023-10-02T01:52:52.068Z,15.44
2023-10-02T01:53:50.024Z,15.46
2023-10-02T01:54:50.110Z,15.43
2023-10-02T01:55:50.348Z,15.41
2023-10-02T01:56:49.400Z,15.44
2023-10-02T01:57:49.536Z,15.44
2023-10-02T01:58:49.803Z,15.41
2023-10-02T01:59:50.959Z,15.38
2023-10-02T02:00:50.013Z,15.35
2023-10-02T02:01:50.295Z,15.34
2023-10-02T02:02:49.390Z,15.35
2023-10-02T02:03:49.456Z,15.35
2023-10-02T02:04:49.598Z,15.34
2023-10-02T02:05:49.753Z,15.35
2023-10-02T02:06:49.878Z,15.31
2023-10-02T02:07:50.063Z,15.34
2023-10-02T02:08:50.134Z,15.35
2023-10-02T02:09:49.272Z,15.34
2023-10-02T02:10:49.482Z,15.35
2023-10-02T02:11:49.693Z,15.34
2023-10-02T02:12:49.761Z,15.37
2023-10-02T02:13:49.921Z,15.34
2023-10-02T02:14:50.059Z,15.37
2023-10-02T02:15:49.184Z,15.37
2023-10-02T02:16:49.441Z,15.40
2023-10-02T02:17:49.704Z,15.40
2023-10-02T02:18:49.695Z,15.40
2023-10-02T02:19:50.388Z,15.41
2023-10-02T02:20:48.973Z,15.43
2023-10-02T02:22:11.034Z,15.43
2023-10-02T02:22:49.344Z,15.40
2023-10-02T02:23:49.533Z,15.40
2023-10-02T02:24:49.653Z,15.40
2023-10-02T02:25:49.815Z,15.37
2023-10-02T02:26:49.915Z,15.31
2023-10-02T02:27:49.028Z,15.28
2023-10-02T02:28:49.221Z,15.23
2023-10-02T02:29:49.468Z,15.20
2023-10-02T02:30:49.474Z,15.22
2023-10-02T02:31:49.700Z,15.18
2023-10-02T02:32:49.834Z,15.15
2023-10-02T02:33:48.891Z,15.13
2023-10-02T02:34:49.133Z,15.12
2023-10-02T02:35:49.292Z,15.11
2023-10-02T02:36:49.357Z,15.13
2023-10-02T02:37:49.616Z,15.13
2023-10-02T02:38:49.705Z,15.12
2023-10-02T02:39:48.833Z,15.13
2023-10-02T02:40:48.982Z,15.12
2023-10-02T02:41:49.178Z,15.12
2023-10-02T02:42:49.332Z,15.13
2023-10-02T02:43:49.558Z,15.13
2023-10-02T02:44:49.635Z,15.16
2023-10-02T02:45:48.823Z,15.15
2023-10-02T02:46:49.005Z,15.16
2023-10-02T02:47:49.089Z,15.15
2023-10-02T02:48:49.202Z,15.11
2023-10-02T02:49:49.482Z,15.11
2023-10-02T02:50:49.516Z,15.05
2023-10-02T02:51:48.672Z,15.05
2023-10-02T02:52:48.837Z,15.09
2023-10-02T02:53:49.034Z,15.11
2023-10-02T02:54:49.153Z,15.11
2023-10-02T02:55:49.252Z,15.13
2023-10-02T02:56:49.378Z,15.09
2023-10-02T02:57:48.476Z,15.09
2023-10-02T02:58:48.694Z,15.11
2023-10-02T02:59:48.831Z,15.12
2023-10-02T03:00:48.948Z,15.09
2023-10-02T03:01:49.202Z,15.09
2023-10-02T03:02:49.479Z,15.07
2023-10-02T03:03:48.513Z,15.07
2023-10-02T03:04:48.645Z,15.07
2023-10-02T03:05:48.803Z,15.09
2023-10-02T03:06:48.912Z,15.07
2023-10-02T03:07:49.056Z,15.11
2023-10-02T03:08:49.220Z,15.11
2023-10-02T03:09:49.337Z,15.12
2023-10-02T03:10:48.479Z,15.11
2023-10-02T03:11:48.696Z,15.13
2023-10-02T03:12:48.785Z,15.12
2023-10-02T03:13:48.941Z,15.12
2023-10-02T03:14:49.078Z,15.12
2023-10-02T03:15:49.247Z,15.13
2023-10-02T03:16:48.575Z,15.12
2023-10-02T03:17:48.672Z,15.12
2023-10-02T03:18:48.669Z,15.12
2023-10-02T03:19:48.873Z,15.13
2023-10-02T03:20:49.020Z,15.13
2023-10-02T03:21:49.217Z,15.12
2023-10-02T03:22:48.379Z,15.09
2023-10-02T03:23:48.536Z,15.11
2023-10-02T03:24:48.712Z,15.11
2023-10-02T03:25:49.148Z,15.12
2023-10-02T03:26:49.059Z,15.12
2023-10-02T03:27:48.239Z,15.12
2023-10-02T03:28:48.384Z,15.12
2023-10-02T03:29:48.546Z,15.11
2023-10-02T03:30:48.655Z,15.11
2023-10-02T03:31:48.909Z,15.07
2023-10-02T03:32:48.987Z,15.03
2023-10-02T03:33:48.046Z,15.03
2023-10-02T03:34:48.217Z,15.00
2023-10-02T03:35:48.411Z,14.97
2023-10-02T03:36:48.487Z,14.95
2023-10-02T03:37:48.738Z,14.93
2023-10-02T03:38:48.824Z,14.94
2023-10-02T03:39:47.962Z,14.93
2023-10-02T03:40:48.139Z,14.90
2023-10-02T03:41:48.307Z,14.90
2023-10-02T03:42:48.472Z,14.87
2023-10-02T03:43:48.681Z,14.86
2023-10-02T03:44:48.843Z,14.80
2023-10-02T03:45:47.971Z,14.80
2023-10-02T03:46:48.171Z,14.82
2023-10-02T03:47:48.381Z,14.80
2023-10-02T03:48:48.488Z,14.82
2023-10-02T03:49:48.711Z,14.79
2023-10-02T03:50:47.843Z,14.79
2023-10-02T03:51:48.031Z,14.78
2023-10-02T03:52:48.236Z,14.74
2023-10-02T03:53:48.429Z,14.72
2023-10-02T03:54:48.529Z,14.67
2023-10-02T03:55:48.811Z,14.64
2023-10-02T03:56:47.836Z,14.63
2023-10-02T03:57:48.040Z,14.64
2023-10-02T03:58:48.289Z,14.63
2023-10-02T03:59:48.437Z,14.64
2023-10-02T04:00:48.587Z,14.64
2023-10-02T04:01:47.734Z,14.61
2023-10-02T04:02:47.891Z,14.61
2023-10-02T04:03:48.036Z,14.61
2023-10-02T04:04:48.247Z,14.61
2023-10-02T04:05:48.414Z,14.63
2023-10-02T04:06:48.605Z,14.63
2023-10-02T04:07:47.661Z,14.64
2023-10-02T04:08:47.780Z,14.63
2023-10-02T04:09:47.936Z,14.63
2023-10-02T04:10:48.161Z,14.61
2023-10-02T04:11:48.305Z,14.61
2023-10-02T04:12:48.453Z,14.60
2023-10-02T04:13:47.600Z,14.59
2023-10-02T04:14:47.755Z,14.59
2023-10-02T04:15:47.929Z,14.59
2023-10-02T04:16:48.155Z,14.59
2023-10-02T04:17:48.441Z,14.57
2023-10-02T04:18:47.606Z,14.60
2023-10-02T04:19:47.632Z,14.59
2023-10-02T04:20:47.786Z,14.61
2023-10-02T04:21:47.969Z,14.60
2023-10-02T04:22:48.227Z,14.59
2023-10-02T04:23:48.351Z,14.61
2023-10-02T04:24:47.501Z,14.57
2023-10-02T04:25:47.621Z,14.59
2023-10-02T04:26:47.787Z,14.57
2023-10-02T04:27:47.941Z,14.59
2023-10-02T04:28:48.220Z,14.61
2023-10-02T04:29:47.448Z,14.60
2023-10-02T04:30:47.535Z,14.61
2023-10-02T04:31:47.809Z,14.61
2023-10-02T04:32:47.857Z,14.61
2023-10-02T04:33:48.006Z,14.59
2023-10-02T04:34:48.262Z,14.57
2023-10-02T04:35:47.317Z,14.56
2023-10-02T04:36:47.500Z,14.53
2023-10-02T04:37:47.702Z,14.49
2023-10-02T04:38:47.824Z,14.46
2023-10-02T04:39:48.029Z,14.44
2023-10-02T04:40:47.236Z,14.39
2023-10-02T04:41:47.298Z,14.39
2023-10-02T04:42:47.471Z,14.39
2023-10-02T04:43:47.634Z,14.39
2023-10-02T04:44:47.808Z,14.38
2023-10-02T04:45:48.042Z,14.36
2023-10-02T04:46:47.174Z,14.39
2023-10-02T04:47:47.368Z,14.39
2023-10-02T04:48:47.449Z,14.42
2023-10-02T04:49:47.647Z,14.42
2023-10-02T04:50:47.786Z,14.46
2023-10-02T04:51:48.069Z,14.46
2023-10-02T04:52:47.174Z,14.46
2023-10-02T04:53:47.455Z,14.49
2023-10-02T04:54:47.427Z,14.52
2023-10-02T04:55:47.662Z,14.53
2023-10-02T04:56:47.809Z,14.53
2023-10-02T04:57:47.980Z,14.54
2023-10-02T04:58:47.077Z,14.54
2023-10-02T04:59:47.212Z,14.56
2023-10-02T05:00:47.458Z,14.54
2023-10-02T05:01:47.589Z,14.56
2023-10-02T05:02:47.789Z,14.54
2023-10-02T05:03:47.017Z,14.56
2023-10-02T05:04:47.148Z,14.54
2023-10-02T05:05:47.242Z,14.56
2023-10-02T05:06:47.426Z,14.56
2023-10-02T05:07:47.660Z,14.59
2023-10-02T05:08:47.766Z,14.56
2023-10-02T05:09:46.877Z,14.56
2023-10-02T05:10:47.022Z,14.57
2023-10-02T05:11:47.201Z,14.56
2023-10-02T05:12:47.424Z,14.52
2023-10-02T05:13:47.550Z,14.53
2023-10-02T05:14:46.737Z,14.54
2023-10-02T05:15:46.898Z,14.54
2023-10-02T05:16:47.127Z,14.54
2023-10-02T05:17:47.234Z,14.56
2023-10-02T05:18:47.351Z,14.56
2023-10-02T05:19:47.567Z,14.57
2023-10-02T05:20:46.628Z,14.57
2023-10-02T05:21:46.834Z,14.57
2023-10-02T05:22:47.036Z,14.57
2023-10-02T05:23:47.152Z,14.57
2023-10-02T05:24:47.325Z,14.57
2023-10-02T05:25:47.925Z,14.57
2023-10-02T05:26:46.639Z,14.57
2023-10-02T05:27:46.804Z,14.56
2023-10-02T05:28:46.925Z,14.56
2023-10-02T05:29:47.097Z,14.57
2023-10-02T05:30:47.313Z,14.54
2023-10-02T05:31:47.471Z,14.56
2023-10-02T05:32:46.605Z,14.54
2023-10-02T05:33:46.734Z,14.56
2023-10-02T05:34:46.978Z,14.57
2023-10-02T05:35:47.052Z,14.54
2023-10-02T05:36:47.229Z,14.53
2023-10-02T05:37:47.749Z,14.53
2023-10-02T05:38:46.510Z,14.54
2023-10-02T05:39:46.686Z,14.52
2023-10-02T05:40:46.871Z,14.53
2023-10-02T05:41:47.016Z,14.54
2023-10-02T05:42:47.189Z,14.54
2023-10-02T05:43:46.373Z,14.56
2023-10-02T05:44:46.529Z,14.57
2023-10-02T05:45:46.725Z,14.59
2023-10-02T05:46:46.840Z,14.59
2023-10-02T05:47:47.094Z,14.61
2023-10-02T05:48:47.184Z,14.64
2023-10-02T05:49:46.297Z,14.66
2023-10-02T05:50:46.466Z,14.69
2023-10-02T05:51:46.642Z,14.72
2023-10-02T05:52:46.842Z,14.71
2023-10-02T05:53:46.996Z,14.72
2023-10-02T05:54:46.204Z,14.74
2023-10-02T05:55:46.357Z,14.72
2023-10-02T05:56:46.501Z,14.72
2023-10-02T05:57:48.862Z,14.72
2023-10-02T05:58:46.858Z,14.74
2023-10-02T05:59:47.057Z,14.78
2023-10-02T06:00:46.193Z,14.78
2023-10-02T06:01:46.343Z,14.79
2023-10-02T06:02:46.520Z,14.80
2023-10-02T06:03:46.735Z,14.80
2023-10-02T06:04:46.834Z,14.82
2023-10-02T06:05:59.835Z,14.82
2023-10-02T06:06:47.143Z,14.83
2023-10-02T06:07:46.393Z,14.83
2023-10-02T06:08:46.484Z,14.86
2023-10-02T06:09:48.444Z,14.90
2023-10-02T06:10:46.887Z,14.90
2023-10-02T06:11:46.049Z,14.91
2023-10-02T06:12:46.185Z,14.91
2023-10-02T06:13:46.426Z,14.91
2023-10-02T06:14:46.520Z,14.90
2023-10-02T06:15:46.669Z,14.91
2023-10-02T06:16:46.920Z,14.91
2023-10-02T06:17:46.037Z,14.93
2023-10-02T06:18:46.137Z,14.94
2023-10-02T06:19:46.376Z,14.95
2023-10-02T06:20:46.403Z,14.94
2023-10-02T06:21:46.605Z,14.98
2023-10-02T06:22:46.830Z,15.00
2023-10-02T06:23:45.886Z,15.01
2023-10-02T06:24:46.034Z,15.03
2023-10-02T06:25:46.257Z,15.01
2023-10-02T06:26:46.336Z,15.03
2023-10-02T06:27:46.496Z,15.04
2023-10-02T06:28:46.751Z,15.04
2023-10-02T06:29:45.791Z,15.01
2023-10-02T06:30:45.997Z,15.04
2023-10-02T06:31:46.158Z,15.04
2023-10-02T06:32:46.321Z,15.05
2023-10-02T06:33:46.454Z,15.05
2023-10-02T06:34:46.689Z,15.04
2023-10-02T06:35:45.782Z,15.05
2023-10-02T06:36:45.930Z,15.07
2023-10-02T06:37:46.093Z,15.09
2023-10-02T06:38:46.215Z,15.09
2023-10-02T06:39:46.365Z,15.09
2023-10-02T06:40:46.614Z,15.09
2023-10-02T06:41:45.669Z,15.13
2023-10-02T06:42:46.788Z,15.12
2023-10-02T06:43:45.999Z,15.13
2023-10-02T06:44:46.149Z,15.15
2023-10-02T06:45:46.299Z,15.19
2023-10-02T06:46:47.052Z,15.20
2023-10-02T06:47:45.607Z,15.23
2023-10-02T06:48:45.709Z,15.25
2023-10-02T06:49:45.937Z,15.28
2023-10-02T06:50:46.162Z,15.28
2023-10-02T06:51:46.179Z,15.33
2023-10-02T06:52:46.461Z,15.35
2023-10-02T06:53:45.495Z,15.37
2023-10-02T06:54:45.789Z,15.40
2023-10-02T06:55:45.779Z,15.41
2023-10-02T06:56:45.928Z,15.43
2023-10-02T06:57:46.062Z,15.49
2023-10-02T06:58:46.311Z,15.55
2023-10-02T06:59:45.349Z,15.55
2023-10-02T07:00:45.525Z,15.60
2023-10-02T07:01:45.740Z,15.60
2023-10-02T07:02:45.936Z,15.66
2023-10-02T07:03:46.033Z,15.67
2023-10-02T07:04:46.199Z,15.70
2023-10-02T07:05:45.238Z,15.74
2023-10-02T07:06:45.447Z,15.76
2023-10-02T07:07:45.602Z,15.78
2023-10-02T07:08:45.788Z,15.81
2023-10-02T07:09:46.171Z,15.86
2023-10-02T07:10:46.581Z,15.89
2023-10-02T07:11:45.226Z,15.95
2023-10-02T07:12:45.397Z,15.98
2023-10-02T07:13:45.552Z,16.03
2023-10-02T07:14:45.825Z,16.06
2023-10-02T07:15:45.882Z,16.08
2023-10-02T07:16:46.321Z,16.13
2023-10-02T07:17:45.207Z,16.14
2023-10-02T07:18:45.289Z,16.17
2023-10-02T07:19:45.466Z,16.22
2023-10-02T07:20:45.601Z,16.26
2023-10-02T07:21:45.760Z,16.32
2023-10-02T07:22:45.948Z,16.33
2023-10-02T07:23:45.040Z,16.36
2023-10-02T07:24:46.507Z,16.41
2023-10-02T07:25:45.347Z,16.44
2023-10-02T07:26:45.446Z,16.47
2023-10-02T07:27:45.614Z,16.50
2023-10-02T07:28:45.766Z,16.51
2023-10-02T07:29:45.865Z,16.54
2023-10-02T07:30:44.933Z,16.55
2023-10-02T07:31:45.168Z,16.62
2023-10-02T07:32:45.315Z,16.63
2023-10-02T07:33:45.455Z,16.65
2023-10-02T07:34:45.643Z,16.66
2023-10-02T07:35:45.690Z,16.67
2023-10-02T07:36:46.037Z,16.72
2023-10-02T07:37:44.933Z,16.73
2023-10-02T07:38:45.050Z,16.77
2023-10-02T07:39:45.187Z,16.81
2023-10-02T07:40:45.414Z,16.80
2023-10-02T07:41:45.445Z,16.84
2023-10-02T07:42:45.602Z,16.88
2023-10-02T07:43:45.758Z,16.90
2023-10-02T07:44:44.833Z,16.92
2023-10-02T07:45:44.985Z,16.98
2023-10-02T07:46:45.128Z,16.99
2023-10-02T07:47:45.270Z,17.02
2023-10-02T07:48:45.333Z,17.05
2023-10-02T07:49:45.544Z,17.07
2023-10-02T07:50:45.612Z,17.09
2023-10-02T07:51:44.737Z,17.14
2023-10-02T07:52:44.956Z,17.17
2023-10-02T07:53:44.957Z,17.21
2023-10-02T07:54:45.076Z,17.24
2023-10-02T07:55:45.270Z,17.28
2023-10-02T07:56:45.338Z,17.30
2023-10-02T07:57:45.537Z,17.35
2023-10-02T07:58:44.699Z,17.36
2023-10-02T07:59:45.660Z,17.40
2023-10-02T08:00:44.849Z,17.43
2023-10-02T08:01:45.071Z,17.46
2023-10-02T08:02:45.171Z,17.49
2023-10-02T08:03:45.604Z,17.54
2023-10-02T08:04:45.374Z,17.58
2023-10-02T08:05:44.461Z,17.62
2023-10-02T08:06:56.486Z,17.65
2023-10-02T08:07:47.408Z,17.70
2023-10-02T08:08:44.781Z,17.76
2023-10-02T08:09:44.988Z,17.80
2023-10-02T08:10:45.068Z,17.84
2023-10-02T08:11:45.150Z,17.87
2023-10-02T08:12:45.278Z,17.91
2023-10-02T08:13:45.413Z,17.94
2023-10-02T08:14:44.534Z,17.96
2023-10-02T08:15:44.720Z,18.01
2023-10-02T08:16:44.732Z,18.04
2023-10-02T08:17:44.870Z,18.09
2023-10-02T08:18:44.953Z,18.13
2023-10-02T08:19:45.089Z,18.17
2023-10-02T08:20:45.206Z,18.23
2023-10-02T08:21:44.300Z,18.28
2023-10-02T08:22:44.460Z,18.32
2023-10-02T08:23:45.450Z,18.39
2023-10-02T08:24:44.630Z,18.46
2023-10-02T08:25:45.771Z,18.49
2023-10-02T08:26:45.067Z,18.51
2023-10-02T08:27:45.006Z,18.54
2023-10-02T08:28:44.101Z,18.59
2023-10-02T08:29:45.177Z,18.64
2023-10-02T08:30:44.361Z,18.68
2023-10-02T08:31:44.734Z,18.71
2023-10-02T08:32:44.695Z,18.76
2023-10-02T08:33:54.589Z,18.78
2023-10-02T08:34:45.959Z,18.83
2023-10-02T08:35:44.987Z,18.89
2023-10-02T08:36:44.015Z,18.94
2023-10-02T08:37:44.162Z,18.96
2023-10-02T08:38:44.346Z,19.01
2023-10-02T08:39:44.345Z,19.05
2023-10-02T08:40:44.453Z,19.06
2023-10-02T08:41:44.545Z,19.10
2023-10-02T08:42:44.593Z,19.15
2023-10-02T08:43:44.773Z,19.17
2023-10-02T08:44:44.744Z,19.21
2023-10-02T08:45:44.865Z,19.25
2023-10-02T08:46:43.933Z,19.27
2023-10-02T08:47:44.066Z,19.32
2023-10-02T08:48:44.116Z,19.34
2023-10-02T08:49:44.259Z,19.38
2023-10-02T08:50:44.349Z,19.40
2023-10-02T08:51:44.415Z,19.43
2023-10-02T08:52:44.548Z,19.45
2023-10-02T08:53:44.596Z,19.49
2023-10-02T08:54:44.855Z,19.52
2023-10-02T08:55:43.815Z,19.55
2023-10-02T08:56:43.877Z,19.60
2023-10-02T08:57:44.867Z,19.62
2023-10-02T08:58:44.474Z,19.68
2023-10-02T08:59:44.190Z,19.71
2023-10-02T09:00:44.447Z,19.76
2023-10-02T09:01:44.532Z,19.79
2023-10-02T09:02:44.789Z,19.83
2023-10-02T09:03:44.776Z,19.86
2023-10-02T09:04:43.674Z,19.90
2023-10-02T09:05:43.769Z,19.95
2023-10-02T09:06:43.887Z,19.98
2023-10-02T09:07:43.946Z,20.01
2023-10-02T09:08:44.051Z,20.04
2023-10-02T09:09:44.127Z,20.07
2023-10-02T09:10:44.214Z,20.10
2023-10-02T09:11:44.319Z,20.15
2023-10-02T09:12:44.401Z,20.17
2023-10-02T09:13:45.513Z,20.22
2023-10-02T09:14:43.744Z,20.26
2023-10-02T09:15:44.733Z,20.34
2023-10-02T09:16:44.832Z,20.38
2023-10-02T09:17:44.333Z,20.44
2023-10-02T09:18:44.074Z,20.50
2023-10-02T09:19:44.232Z,20.53
2023-10-02T09:20:44.347Z,20.61
2023-10-02T09:21:43.446Z,20.66
2023-10-02T09:22:43.589Z,20.71
2023-10-02T09:23:43.741Z,20.78
2023-10-02T09:24:43.853Z,20.82
2023-10-02T09:25:44.998Z,20.88
2023-10-02T09:26:44.121Z,20.93
2023-10-02T09:27:44.275Z,20.98
2023-10-02T09:28:43.308Z,21.03
2023-10-02T09:29:43.500Z,21.09
2023-10-02T09:30:44.080Z,21.15
2023-10-02T09:31:44.634Z,21.15
2023-10-02T09:32:43.796Z,21.22
2023-10-02T09:34:09.550Z,21.26
2023-10-02T09:35:07.639Z,21.34
2023-10-02T09:36:02.223Z,21.38
2023-10-02T09:37:33.539Z,21.46
2023-10-02T09:38:05.343Z,21.53
2023-10-02T09:38:44.810Z,21.59
2023-10-02T09:39:48.059Z,21.63
2023-10-02T09:40:43.774Z,21.66
2023-10-02T09:41:44.842Z,21.66
2023-10-02T09:42:44.018Z,21.67
2023-10-02T09:43:44.165Z,21.68
2023-10-02T09:44:43.316Z,21.73
2023-10-02T09:45:43.396Z,21.75
2023-10-02T09:46:43.442Z,21.75
2023-10-02T09:47:59.698Z,21.77
2023-10-02T09:48:44.702Z,21.79
2023-10-02T09:49:43.740Z,21.85
2023-10-02T09:50:43.889Z,21.89
2023-10-02T09:51:44.014Z,21.93
2023-10-02T09:52:43.107Z,21.96
2023-10-02T09:53:43.195Z,22.01
2023-10-02T09:54:43.324Z,22.05
2023-10-02T09:55:43.435Z,22.09
2023-10-02T09:56:43.593Z,22.15
2023-10-02T09:57:44.940Z,22.21
2023-10-02T09:58:43.778Z,22.29
2023-10-02T09:59:43.864Z,22.38
2023-10-02T10:00:43.019Z,22.42
2023-10-02T10:01:43.035Z,22.46
2023-10-02T10:02:43.194Z,22.52
2023-10-02T10:03:43.203Z,22.56
2023-10-02T10:04:43.239Z,22.56
2023-10-02T10:05:43.356Z,22.59
2023-10-02T10:06:43.484Z,22.66
2023-10-02T10:07:43.630Z,22.69
2023-10-02T10:08:43.584Z,22.70
2023-10-02T10:09:44.635Z,22.70
2023-10-02T10:10:43.762Z,22.75
2023-10-02T10:11:42.833Z,22.78
2023-10-02T10:12:44.170Z,22.79
2023-10-02T10:13:44.043Z,22.78
2023-10-02T10:14:43.131Z,22.78
2023-10-02T10:15:43.186Z,22.79
2023-10-02T10:16:43.314Z,22.81
2023-10-02T10:17:43.444Z,22.81
2023-10-02T10:18:43.470Z,22.81
2023-10-02T10:19:44.426Z,22.84
2023-10-02T10:20:42.624Z,22.86
2023-10-02T10:21:42.718Z,22.91
2023-10-02T10:22:42.770Z,22.91
2023-10-02T10:23:42.858Z,22.94
2023-10-02T10:24:42.927Z,22.97
2023-10-02T10:25:43.036Z,23.01
2023-10-02T10:26:43.117Z,23.03
2023-10-02T10:27:43.199Z,23.04
2023-10-02T10:28:44.220Z,23.07
2023-10-02T10:29:43.472Z,23.09
2023-10-02T10:30:43.416Z,23.12
2023-10-02T10:31:44.460Z,23.12
2023-10-02T10:32:42.655Z,23.16
2023-10-02T10:33:42.687Z,23.21
2023-10-02T10:34:42.710Z,23.23
2023-10-02T10:35:42.809Z,23.32
2023-10-02T10:36:42.981Z,23.38
2023-10-02T10:37:43.941Z,23.44
2023-10-02T10:38:43.261Z,23.50
2023-10-02T10:39:44.089Z,23.56
2023-10-02T10:40:44.174Z,23.57
2023-10-02T10:41:43.407Z,23.59
2023-10-02T10:42:43.336Z,23.62
2023-10-02T10:43:42.474Z,23.63
2023-10-02T10:44:42.568Z,23.59
2023-10-02T10:45:42.724Z,23.57
2023-10-02T10:46:43.739Z,23.60
2023-10-02T10:47:43.272Z,23.64
2023-10-02T10:48:43.050Z,23.68
2023-10-02T10:49:43.162Z,23.72
2023-10-02T10:50:44.203Z,23.75
2023-10-02T10:51:42.269Z,23.74
2023-10-02T10:52:43.278Z,23.77
2023-10-02T10:53:42.458Z,23.79
2023-10-02T10:54:56.766Z,23.75
2023-10-02T10:55:43.497Z,23.78
2023-10-02T10:56:42.581Z,23.78
2023-10-02T10:57:42.674Z,23.78
2023-10-02T10:58:42.783Z,23.84
2023-10-02T10:59:42.825Z,23.89
2023-10-02T11:00:43.922Z,23.92
2023-10-02T11:01:43.990Z,23.92
2023-10-02T11:02:44.023Z,23.92
2023-10-02T11:03:43.273Z,23.94
2023-10-02T11:04:42.229Z,23.96
2023-10-02T11:05:42.287Z,24.04
2023-10-02T11:06:43.287Z,24.08
2023-10-02T11:07:43.364Z,24.12
2023-10-02T11:08:42.567Z,24.16
2023-10-02T11:09:42.701Z,24.21
2023-10-02T11:10:43.604Z,24.27
2023-10-02T11:11:43.735Z,24.33
2023-10-02T11:12:43.804Z,24.39
2023-10-02T11:13:42.910Z,24.31
2023-10-02T11:14:41.901Z,24.30
2023-10-02T11:15:42.000Z,24.30
2023-10-02T11:16:42.038Z,24.29
2023-10-02T11:17:42.287Z,24.33
2023-10-02T11:18:42.201Z,24.39
2023-10-02T11:19:42.196Z,24.45
2023-10-02T11:20:42.266Z,24.53
2023-10-02T11:21:42.380Z,24.53
2023-10-02T11:22:42.418Z,24.61
2023-10-02T11:23:42.924Z,24.66
2023-10-02T11:24:44.213Z,24.75
2023-10-02T11:25:42.584Z,24.79
2023-10-02T11:26:42.708Z,24.84
2023-10-02T11:27:42.729Z,24.84
2023-10-02T11:28:41.766Z,24.84
2023-10-02T11:29:41.877Z,24.84
2023-10-02T11:30:42.880Z,24.89
2023-10-02T11:31:41.979Z,24.93
2023-10-02T11:32:42.206Z,25.04
2023-10-02T11:33:42.131Z,25.11
2023-10-02T11:34:42.228Z,25.24
2023-10-02T11:35:42.467Z,25.35
2023-10-02T11:36:42.443Z,25.39
2023-10-02T11:37:42.543Z,25.36
2023-10-02T11:38:42.692Z,25.34
2023-10-02T11:39:45.729Z,25.34
2023-10-02T11:40:42.720Z,25.38
2023-10-02T11:41:41.984Z,25.41
2023-10-02T11:42:43.030Z,25.48
2023-10-02T11:43:42.047Z,25.53
2023-10-02T11:44:43.048Z,25.56
2023-10-02T11:45:42.184Z,25.64
2023-10-02T11:46:42.284Z,25.71
2023-10-02T11:47:42.391Z,25.79
2023-10-02T11:48:42.600Z,25.81
2023-10-02T11:49:41.468Z,25.74
2023-10-02T11:50:41.577Z,25.78
2023-10-02T11:51:41.606Z,25.76
2023-10-02T11:52:41.709Z,25.81
2023-10-02T11:53:41.772Z,25.81
2023-10-02T11:54:42.024Z,25.83
2023-10-02T11:55:41.949Z,25.85
2023-10-02T11:56:42.005Z,25.91
2023-10-02T11:57:42.086Z,26.03
2023-10-02T11:58:42.166Z,26.12
2023-10-02T11:59:42.249Z,26.12
2023-10-02T12:00:42.758Z,26.13
2023-10-02T12:01:41.350Z,26.12
2023-10-02T12:02:41.551Z,26.12
2023-10-02T12:03:41.660Z,26.16
2023-10-02T12:04:41.548Z,26.13
2023-10-02T12:05:41.674Z,26.16
2023-10-02T12:06:41.705Z,26.27
2023-10-02T12:07:41.766Z,26.32
2023-10-02T12:08:42.792Z,26.35
2023-10-02T12:09:41.916Z,26.44
2023-10-02T12:10:42.007Z,26.54
2023-10-02T12:11:42.025Z,26.60
2023-10-02T12:12:42.052Z,26.68
2023-10-02T12:13:42.091Z,26.71
2023-10-02T12:14:41.147Z,26.75
2023-10-02T12:15:41.194Z,26.76
2023-10-02T12:16:41.398Z,26.79
2023-10-02T12:17:41.408Z,26.79
2023-10-02T12:18:41.360Z,26.73
2023-10-02T12:19:41.572Z,26.81
2023-10-02T12:20:41.571Z,26.93
2023-10-02T12:21:48.463Z,27.02
2023-10-02T12:22:42.642Z,27.06
2023-10-02T12:23:42.671Z,27.16
2023-10-02T12:24:41.776Z,27.23
2023-10-02T12:25:41.828Z,27.25
2023-10-02T12:26:41.925Z,27.28
2023-10-02T12:27:42.001Z,27.27
2023-10-02T12:28:40.993Z,27.25
2023-10-02T12:29:42.225Z,27.25
2023-10-02T12:30:41.214Z,27.25
2023-10-02T12:31:42.189Z,27.28
2023-10-02T12:32:41.381Z,27.34
2023-10-02T12:33:42.225Z,27.39
2023-10-02T12:34:41.321Z,27.49
2023-10-02T12:35:41.417Z,27.55
2023-10-02T12:36:42.458Z,27.63
2023-10-02T12:37:41.572Z,27.65
2023-10-02T12:38:41.555Z,27.66
2023-10-02T12:39:41.614Z,27.63
2023-10-02T12:40:41.666Z,27.66
2023-10-02T12:41:41.775Z,27.66
2023-10-02T12:42:40.805Z,27.62
2023-10-02T12:43:40.959Z,27.59
2023-10-02T12:44:40.894Z,27.53
2023-10-02T12:45:40.970Z,27.52
2023-10-02T12:46:41.063Z,27.45
2023-10-02T12:47:41.178Z,27.45
2023-10-02T12:48:41.226Z,27.45
2023-10-02T12:49:41.370Z,27.45
2023-10-02T12:50:41.454Z,27.45
2023-10-02T12:51:41.346Z,27.46
2023-10-02T12:52:42.399Z,27.40